Time;durP1;ratioP1;P1;durP2;ratioP2;P2;SDS_P1;SDS_P2;PMS_P1;PMS_P2;Temp;Humidity;BMP_temperature;BMP_pressure;BME280_temperature;BME280_humidity;BME280_pressure;Samples;Min_cycle;Max_cycle;Signal;HPM_P1;HPM_P2
2022/08/23 00:00:43;;;;;;;15.98;3.40;;;;;;;22.08;53.06;100105.23;1751256;82;21058;-64
2022/08/23 00:03:12;;;;;;;11.80;3.27;;;;;;;22.05;52.85;100106.64;1751659;82;21051;-63
2022/08/23 00:05:43;;;;;;;12.23;3.70;;;;;;;22.04;52.82;100104.97;1758203;81;21024;-61
2022/08/23 00:08:13;;;;;;;11.95;3.27;;;;;;;22.04;52.77;100105.52;1764011;81;21102;-63
2022/08/23 00:10:43;;;;;;;14.90;4.22;;;;;;;22.03;52.73;100103.84;1684226;85;21032;-62
2022/08/23 00:13:14;;;;;;;14.10;3.25;;;;;;;22.03;52.19;100106.64;1764075;81;21051;-62
2022/08/23 00:15:42;;;;;;;12.03;3.62;;;;;;;22.02;52.42;100104.94;1684102;84;21131;-62
2022/08/23 00:18:13;;;;;;;15.50;3.10;;;;;;;22.00;52.28;100107.17;1764231;81;21427;-62
2022/08/23 00:20:43;;;;;;;12.23;3.10;;;;;;;21.97;52.33;100116.94;1684020;85;21122;-62
2022/08/23 00:23:12;;;;;;;11.90;3.55;;;;;;;21.97;52.10;100111.91;1764272;81;21051;-62
2022/08/23 00:25:42;;;;;;;17.87;3.80;;;;;;;21.97;51.98;100116.94;1684101;85;21047;-61
2022/08/23 00:28:12;;;;;;;9.73;3.27;;;;;;;21.96;52.20;100119.45;1764515;81;21099;-62
2022/08/23 00:30:44;;;;;;;13.03;3.42;;;;;;;21.95;51.93;100114.98;1764053;81;21012;-63
2022/08/23 00:33:13;;;;;;;14.00;3.08;;;;;;;21.96;52.11;100114.42;1764054;81;21494;-62
2022/08/23 00:35:43;;;;;;;9.35;2.98;;;;;;;21.96;51.82;100117.22;1684173;84;21047;-62
2022/08/23 00:38:13;;;;;;;11.10;3.08;;;;;;;22.00;51.43;100124.75;1763161;81;21432;-61
2022/08/23 00:40:47;;;;;;;11.53;3.02;;;;;;;22.00;51.54;100119.72;1684137;85;21064;-63
2022/08/23 00:49:35;;;;;;;11.25;3.45;;;;;;;21.98;51.94;100126.14;1750860;82;21051;-62
2022/08/23 00:52:22;;;;;;;12.45;3.80;;;;;;;21.94;52.06;100127.82;1750906;82;21054;-62
2022/08/23 00:54:52;;;;;;;13.32;3.25;;;;;;;21.92;52.19;100130.05;1750930;82;21015;-62
2022/08/23 00:57:22;;;;;;;12.73;3.25;;;;;;;21.89;52.48;100130.61;1718013;83;21051;-63
2022/08/23 00:59:52;;;;;;;13.58;3.70;;;;;;;21.83;52.44;100134.80;1719316;83;21419;-62
2022/08/23 01:02:22;;;;;;;12.47;4.08;;;;;;;21.80;52.68;100140.93;1718790;83;21085;-63
2022/08/23 01:04:55;;;;;;;12.20;3.60;;;;;;;21.75;52.68;100132.56;1718685;83;21175;-63
2022/08/23 01:07:48;;;;;;;15.70;3.65;;;;;;;21.71;52.63;100123.62;1718752;83;21031;-63
2022/08/23 01:10:26;;;;;;;14.45;4.10;;;;;;;21.69;52.58;100130.88;1718992;83;21042;-63
2022/08/23 01:13:08;;;;;;;8.10;3.17;;;;;;;21.69;52.49;100130.88;1716624;83;21447;-62
2022/08/23 01:15:48;;;;;;;9.68;3.02;;;;;;;21.70;52.28;100131.16;1718750;83;21419;-62
2022/08/23 01:18:21;;;;;;;13.43;3.55;;;;;;;21.70;52.13;100121.95;1681978;85;21427;-62
2022/08/23 01:21:08;;;;;;;15.23;3.52;;;;;;;21.69;52.29;100130.05;1682221;85;21097;-62
2022/08/23 01:23:46;;;;;;;9.60;3.17;;;;;;;21.69;52.15;100129.48;1682015;85;21014;-62
2022/08/23 01:26:16;;;;;;;7.90;2.77;;;;;;;21.69;51.38;100129.48;1682184;85;21549;-62
2022/08/23 01:28:48;;;;;;;8.20;2.85;;;;;;;21.71;50.50;100137.58;1670591;85;21105;-62
2022/08/23 01:31:18;;;;;;;14.60;3.30;;;;;;;21.73;50.78;100134.79;1681965;85;21007;-63
2022/08/23 01:34:01;;;;;;;12.58;3.12;;;;;;;21.76;49.66;100127.26;1682039;85;21054;-61
2022/08/23 01:36:30;;;;;;;13.13;3.20;;;;;;;21.81;48.90;100127.82;1650062;86;21032;-61
2022/08/23 01:39:01;;;;;;;11.80;2.92;;;;;;;21.88;49.50;100132.56;1670576;85;21071;-62
2022/08/23 01:41:31;;;;;;;8.50;3.25;;;;;;;21.89;48.71;100134.80;1670770;86;21487;-62
2022/08/23 01:44:01;;;;;;;12.30;3.45;;;;;;;21.93;48.99;100140.09;1670513;86;21016;-62
2022/08/23 01:46:30;;;;;;;15.10;3.12;;;;;;;21.93;49.45;100141.48;1670616;85;21056;-61
2022/08/23 01:49:00;;;;;;;8.50;2.90;;;;;;;21.94;48.45;100143.16;1671952;84;21067;-62
2022/08/23 01:51:33;;;;;;;10.25;3.20;;;;;;;21.96;48.37;100146.51;1657492;85;21019;-62
2022/08/23 01:54:03;;;;;;;10.60;3.08;;;;;;;22.00;48.11;100145.67;1682319;85;21027;-62
2022/08/23 01:56:33;;;;;;;8.80;3.12;;;;;;;22.03;48.27;100149.89;1681988;85;21022;-62
2022/08/23 01:59:06;;;;;;;11.35;2.98;;;;;;;22.04;47.75;100144.59;1691798;83;21072;-61
2022/08/23 02:01:39;;;;;;;10.45;3.58;;;;;;;22.06;47.64;100147.93;1709273;84;21024;-63
2022/08/23 02:04:09;;;;;;;8.78;3.12;;;;;;;22.08;47.91;100142.91;1684660;84;21040;-62
2022/08/23 02:06:40;;;;;;;20.37;3.25;;;;;;;22.08;47.67;100144.30;1709616;84;21019;-61
2022/08/23 02:09:11;;;;;;;12.58;3.10;;;;;;;22.08;47.24;100135.94;1684345;84;21467;-62
2022/08/23 02:11:43;;;;;;;13.30;3.20;;;;;;;22.10;47.73;100142.07;1682588;85;21226;-62
2022/08/23 02:14:17;;;;;;;11.43;3.40;;;;;;;22.09;47.39;100147.38;1690650;85;21040;-62
2022/08/23 02:16:57;;;;;;;13.70;3.62;;;;;;;22.10;47.07;100147.65;1690817;84;21100;-63
2022/08/23 02:19:29;;;;;;;7.87;2.58;;;;;;;22.10;47.17;100152.67;1690502;85;21531;-62
2022/08/23 02:21:59;;;;;;;8.65;3.27;;;;;;;22.12;46.76;100156.61;1690577;85;21456;-62
2022/08/23 02:24:30;;;;;;;12.55;3.27;;;;;;;22.12;46.88;100154.66;1690748;85;21461;-62
2022/08/23 02:27:03;;;;;;;9.95;3.33;;;;;;;22.12;46.64;100158.01;1690626;85;21529;-62
2022/08/23 02:29:36;;;;;;;11.03;3.42;;;;;;;22.13;46.64;100154.09;1690746;84;21469;-62
2022/08/23 02:32:10;;;;;;;17.12;3.40;;;;;;;22.14;46.57;100150.19;1690601;85;21040;-62
2022/08/23 02:34:40;;;;;;;12.15;2.90;;;;;;;22.15;46.23;100149.08;1690756;85;21068;-63
2022/08/23 02:37:09;;;;;;;11.97;3.22;;;;;;;22.13;46.30;100149.91;1690641;85;21060;-62
2022/08/23 02:39:39;;;;;;;9.33;2.72;;;;;;;22.13;46.32;100152.70;1690654;85;21028;-62
2022/08/23 02:42:09;;;;;;;10.63;2.90;;;;;;;22.14;46.34;100158.56;1690542;85;21073;-62
2022/08/23 02:44:42;;;;;;;13.60;3.77;;;;;;;22.13;46.41;100154.09;1690508;85;21109;-62
2022/08/23 02:47:12;;;;;;;17.80;3.08;;;;;;;22.12;46.54;100158.01;1690592;85;21074;-62
2022/08/23 02:49:43;;;;;;;10.82;3.00;;;;;;;22.08;46.18;100162.44;1691322;84;21476;-61
2022/08/23 02:52:13;;;;;;;11.28;3.10;;;;;;;22.05;46.39;100160.21;1691162;85;21424;-61
2022/08/23 02:54:44;;;;;;;9.60;2.98;;;;;;;22.06;46.47;100168.86;1691216;85;21510;-61
2022/08/23 02:57:14;;;;;;;11.78;2.98;;;;;;;22.04;46.45;100165.52;1691359;85;21070;-62
2022/08/23 02:59:44;;;;;;;12.05;2.90;;;;;;;22.01;46.35;100161.30;1690360;85;21491;-61
2022/08/23 03:02:13;;;;;;;14.70;3.12;;;;;;;22.02;46.22;100161.58;1691570;85;21083;-62
2022/08/23 03:04:44;;;;;;;9.23;3.20;;;;;;;22.03;46.29;100168.02;1691320;85;21095;-62
2022/08/23 03:07:17;;;;;;;10.20;3.00;;;;;;;22.01;46.33;100171.63;1691333;85;21116;-62
2022/08/23 03:09:47;;;;;;;11.40;3.52;;;;;;;22.01;45.94;100179.43;1700063;84;21036;-63
2022/08/23 03:12:17;;;;;;;12.95;3.35;;;;;;;22.02;46.03;100171.90;1684704;84;21031;-62
2022/08/23 03:14:51;;;;;;;10.53;3.00;;;;;;;22.03;46.13;100171.66;1709469;84;21444;-63
2022/08/23 03:17:21;;;;;;;11.25;2.83;;;;;;;22.04;46.05;100180.30;1684707;84;21514;-62
2022/08/23 03:19:51;;;;;;;13.13;2.92;;;;;;;22.03;46.00;100183.37;1709569;84;21015;-63
2022/08/23 03:22:22;;;;;;;17.20;3.77;;;;;;;21.99;46.18;100184.45;1684877;84;21098;-63
2022/08/23 03:24:52;;;;;;;13.03;3.27;;;;;;;21.97;46.02;100185.29;1709319;84;21055;-62
2022/08/23 03:27:23;;;;;;;13.60;3.00;;;;;;;21.97;45.84;100184.45;1684681;85;21740;-63
2022/08/23 03:29:52;;;;;;;16.52;3.55;;;;;;;22.00;45.47;100193.66;1666488;84;21038;-62
2022/08/23 03:32:23;;;;;;;11.53;3.00;;;;;;;22.01;45.49;100187.80;1681198;85;21102;-62
2022/08/23 03:34:55;;;;;;;12.58;3.00;;;;;;;22.04;45.27;100186.44;1680948;85;21051;-63
2022/08/23 03:37:25;;;;;;;11.73;3.25;;;;;;;22.07;45.18;100192.86;1681066;85;21062;-61
2022/08/23 03:39:54;;;;;;;17.62;3.45;;;;;;;22.09;45.27;100185.87;1676837;85;21051;-61
2022/08/23 03:42:24;;;;;;;9.98;3.05;;;;;;;22.12;45.17;100197.08;1676828;85;21008;-61
2022/08/23 03:44:56;;;;;;;13.62;2.95;;;;;;;22.14;44.98;100189.27;1676268;85;21098;-61
2022/08/23 03:47:28;;;;;;;10.80;3.10;;;;;;;22.16;45.11;100205.17;1676614;85;21151;-62
2022/08/23 03:49:58;;;;;;;14.63;3.25;;;;;;;22.20;44.90;100202.66;1702491;84;21068;-63
2022/08/23 03:52:28;;;;;;;12.98;3.10;;;;;;;22.18;44.97;100207.13;1684617;85;21052;-62
2022/08/23 03:54:58;;;;;;;13.65;3.10;;;;;;;22.21;45.08;100209.91;1709130;84;21032;-63
2022/08/23 03:57:29;;;;;;;13.32;3.05;;;;;;;22.26;44.91;100216.89;1646026;87;21012;-62
2022/08/23 04:00:00;;;;;;;12.35;3.50;;;;;;;22.28;44.63;100211.30;1647621;87;21102;-62
2022/08/23 04:02:30;;;;;;;15.58;3.42;;;;;;;22.31;44.59;100214.94;1633350;86;21083;-63
2022/08/23 04:05:01;;;;;;;21.02;3.72;;;;;;;22.34;44.28;100226.94;1719746;83;21480;-61
2022/08/23 04:07:32;;;;;;;15.85;3.37;;;;;;;22.36;44.55;100223.86;1649384;85;21123;-63
2022/08/23 04:10:03;;;;;;;12.40;3.20;;;;;;;22.38;44.46;100227.22;1744030;82;21074;-62
2022/08/23 04:12:35;;;;;;;16.05;3.15;;;;;;;22.40;44.57;100231.40;1745818;82;21501;-61
2022/08/23 04:15:08;;;;;;;9.05;3.25;;;;;;;22.45;44.12;100227.77;1745737;82;21022;-63
2022/08/23 04:17:39;;;;;;;21.95;3.45;;;;;;;22.46;44.41;100227.48;1745773;82;21067;-61
2022/08/23 04:20:10;;;;;;;15.43;3.25;;;;;;;22.50;44.30;100233.91;1745569;82;21043;-64
2022/08/23 04:22:45;;;;;;;15.53;3.10;;;;;;;22.54;44.19;100223.84;1745855;82;21437;-62
2022/08/23 04:25:18;;;;;;;16.17;3.47;;;;;;;22.58;43.89;100222.17;1704468;82;21159;-63
2022/08/23 04:27:51;;;;;;;16.45;4.03;;;;;;;22.61;43.76;100235.01;1747221;81;21079;-63
2022/08/23 04:30:21;;;;;;;16.60;3.62;;;;;;;22.62;43.73;100231.66;1758332;81;21040;-63
2022/08/23 04:32:54;;;;;;;17.07;3.67;;;;;;;22.63;43.62;100234.73;1678916;85;21561;-64
2022/08/23 04:35:24;;;;;;;19.87;3.62;;;;;;;22.64;43.76;100240.03;1743155;81;21044;-62
2022/08/23 04:37:54;;;;;;;12.82;3.58;;;;;;;22.66;43.78;100236.95;1758397;81;21020;-62
2022/08/23 04:43:14;;;;;;;18.12;3.77;;;;;;;22.72;43.37;100241.42;1758611;81;21405;-61
2022/08/23 04:45:44;;;;;;;15.35;3.70;;;;;;;22.74;43.54;100240.02;1758322;81;21016;-62
2022/08/23 04:48:17;;;;;;;13.62;3.75;;;;;;;22.79;43.50;100250.37;1678700;84;21080;-62
2022/08/23 04:50:48;;;;;;;26.42;4.30;;;;;;;22.82;43.44;100249.84;1745895;82;21019;-62
2022/08/23 04:53:22;;;;;;;17.17;3.70;;;;;;;22.82;42.98;100242.86;1745895;82;21020;-62
2022/08/23 04:55:57;;;;;;;25.02;3.58;;;;;;;22.86;43.22;100248.16;1754564;81;21012;-63
2022/08/23 04:58:28;;;;;;;17.12;4.15;;;;;;;22.90;42.88;100247.87;1694236;84;21019;-62
2022/08/23 05:00:59;;;;;;;21.05;3.75;;;;;;;22.93;43.01;100239.48;1760328;81;20996;-62
2022/08/23 05:03:30;;;;;;;21.65;4.05;;;;;;;22.95;42.71;100246.45;1681606;85;21035;-62
2022/08/23 05:06:00;;;;;;;19.25;3.60;;;;;;;22.98;42.90;100250.64;1748310;82;21047;-64
2022/08/23 05:08:31;;;;;;;26.15;3.90;;;;;;;23.00;42.83;100249.23;1748361;82;21448;-61
2022/08/23 05:11:02;;;;;;;26.45;4.65;;;;;;;23.03;42.94;100250.63;1748556;82;20999;-63
2022/08/23 05:13:33;;;;;;;23.22;4.17;;;;;;;23.06;42.59;100259.84;1748616;82;21019;-63
2022/08/23 05:16:05;;;;;;;18.77;3.95;;;;;;;23.09;42.29;100255.92;1748622;82;21102;-62
2022/08/23 05:18:38;;;;;;;20.80;4.28;;;;;;;23.11;42.46;100264.58;1748549;82;21027;-62
2022/08/23 05:21:07;;;;;;;30.55;4.78;;;;;;;23.15;42.54;100267.92;1748469;82;21051;-62
2022/08/23 05:23:38;;;;;;;29.30;4.87;;;;;;;23.20;42.25;100268.47;1749365;81;21039;-62
2022/08/23 05:26:10;;;;;;;27.37;4.83;;;;;;;23.23;42.13;100273.48;1748263;82;21034;-62
2022/08/23 05:28:44;;;;;;;28.07;4.12;;;;;;;23.23;42.43;100277.68;1748675;82;21483;-63
2022/08/23 05:31:23;;;;;;;30.62;4.25;;;;;;;23.27;42.09;100276.83;1748911;82;21082;-64
2022/08/23 05:33:54;;;;;;;21.00;4.35;;;;;;;23.30;42.25;100277.66;1748821;82;21438;-62
2022/08/23 05:36:44;;;;;;;29.20;4.53;;;;;;;23.35;42.30;100274.00;1718409;82;21038;-63
2022/08/23 05:39:17;;;;;;;24.50;4.53;;;;;;;23.39;42.28;100279.30;1747240;82;21019;-61
2022/08/23 05:41:48;;;;;;;31.80;4.85;;;;;;;23.45;42.18;100278.19;1710971;84;21404;-64
2022/08/23 05:44:19;;;;;;;30.10;5.37;;;;;;;23.49;42.08;100280.69;1710782;84;21067;-62
2022/08/23 05:46:50;;;;;;;24.80;5.00;;;;;;;23.53;42.14;100280.95;1682697;84;21043;-63
2022/08/23 05:49:25;;;;;;;31.40;5.10;;;;;;;23.58;42.12;100283.20;1666649;86;21056;-62
2022/08/23 05:51:55;;;;;;;28.45;5.37;;;;;;;23.66;42.00;100288.75;1650370;87;21131;-62
2022/08/23 05:54:27;;;;;;;31.27;4.92;;;;;;;23.68;41.81;100289.30;1718726;83;21058;-62
2022/08/23 05:56:59;;;;;;;32.40;6.00;;;;;;;23.68;41.95;100292.94;1718640;83;21038;-63
2022/08/23 05:59:30;;;;;;;48.17;6.28;;;;;;;23.71;42.05;100299.36;1719068;83;21027;-63
2022/08/23 06:02:00;;;;;;;35.33;5.28;;;;;;;23.75;42.19;100303.81;1718670;83;21042;-62
2022/08/23 06:04:31;;;;;;;28.80;4.80;;;;;;;23.76;42.08;100301.85;1681744;85;21031;-64
2022/08/23 06:07:01;;;;;;;41.02;5.25;;;;;;;23.80;42.13;100297.35;1664741;86;21091;-63
2022/08/23 06:09:31;;;;;;;26.65;5.25;;;;;;;23.86;41.83;100304.59;1731267;83;21460;-63
2022/08/23 06:12:01;;;;;;;38.75;6.12;;;;;;;23.87;41.89;100300.67;1731187;83;20992;-63
2022/08/23 06:14:31;;;;;;;41.88;7.35;;;;;;;23.90;41.87;100310.73;1731360;83;21020;-64
2022/08/23 06:17:01;;;;;;;34.13;5.90;;;;;;;23.97;41.75;100314.61;1705367;83;21464;-63
2022/08/23 06:19:32;;;;;;;40.23;5.70;;;;;;;24.00;41.75;100314.03;1731224;83;21012;-63
2022/08/23 06:22:11;;;;;;;27.85;6.03;;;;;;;24.03;41.50;100319.05;1731192;83;21055;-64
2022/08/23 06:24:41;;;;;;;52.08;7.03;;;;;;;24.04;41.56;100317.36;1717830;83;21048;-64
2022/08/23 06:27:16;;;;;;;34.05;5.80;;;;;;;24.11;41.28;100317.08;1719042;83;21035;-63
2022/08/23 06:29:47;;;;;;;35.15;5.53;;;;;;;24.17;41.76;100322.92;1718831;83;21050;-62
2022/08/23 06:32:22;;;;;;;42.73;6.03;;;;;;;24.26;41.32;100328.73;1676025;83;21039;-62
2022/08/23 06:34:53;;;;;;;38.30;5.58;;;;;;;24.34;41.11;100327.59;1715515;83;21039;-63
2022/08/23 06:37:27;;;;;;;40.55;5.08;;;;;;;24.44;41.35;100330.05;1715588;83;21027;-62
2022/08/23 06:40:11;;;;;;;39.48;5.53;;;;;;;24.55;40.87;100329.67;1717335;83;21443;-63
2022/08/23 06:42:53;;;;;;;41.08;6.15;;;;;;;24.65;40.53;100330.99;1717900;83;21036;-62
2022/08/23 06:45:25;;;;;;;36.70;5.80;;;;;;;24.74;40.55;100335.44;1718785;83;21051;-63
2022/08/23 06:47:58;;;;;;;45.70;5.92;;;;;;;24.84;40.50;100336.74;1717806;83;21240;-64
2022/08/23 06:50:30;;;;;;;39.63;6.60;;;;;;;24.94;40.15;100345.06;1682265;85;21083;-64
2022/08/23 06:53:20;;;;;;;50.83;8.05;;;;;;;25.04;40.24;100339.12;1681978;85;21068;-64
2022/08/23 06:56:03;;;;;;;41.85;6.30;;;;;;;25.18;40.64;100347.94;1667468;86;21099;-63
2022/08/23 06:58:42;;;;;;;49.38;7.75;;;;;;;25.33;39.96;100337.12;1672672;85;21115;-63
2022/08/23 07:01:34;;;;;;;45.40;6.85;;;;;;;25.49;39.61;100347.08;1693837;84;21048;-62
2022/08/23 07:04:09;;;;;;;42.58;6.45;;;;;;;25.68;39.46;100346.33;1683141;84;21063;-64
2022/08/23 07:06:51;;;;;;;41.60;7.05;;;;;;;25.89;39.03;100351.38;1678056;84;21142;-63
2022/08/23 07:09:20;;;;;;;45.75;6.67;;;;;;;26.12;38.83;100355.31;1764272;81;21043;-64
2022/08/23 07:11:50;;;;;;;53.42;7.50;;;;;;;26.29;38.30;100354.78;1684221;85;21052;-64
2022/08/23 07:14:20;;;;;;;45.45;6.53;;;;;;;26.48;37.81;100354.81;1764018;81;21522;-63
2022/08/23 07:16:58;;;;;;;44.73;6.65;;;;;;;26.67;37.55;100358.47;1763604;81;21027;-63
2022/08/23 07:19:30;;;;;;;39.10;6.55;;;;;;;26.88;37.43;100352.51;1763213;81;21027;-65
2022/08/23 07:22:03;;;;;;;48.28;7.15;;;;;;;27.08;36.51;100360.62;1764024;81;21004;-64
2022/08/23 07:24:33;;;;;;;44.23;6.10;;;;;;;27.18;36.80;100359.03;1763241;81;21082;-64
2022/08/23 07:27:08;;;;;;;54.95;6.90;;;;;;;27.30;36.46;100359.36;1763977;81;21024;-63
2022/08/23 07:29:43;;;;;;;50.23;7.33;;;;;;;27.40;36.13;100365.39;1763871;81;21027;-64
2022/08/23 07:32:13;;;;;;;56.25;7.17;;;;;;;27.54;35.78;100375.27;1760870;81;21423;-63
2022/08/23 07:34:43;;;;;;;61.50;7.60;;;;;;;27.61;35.76;100370.09;1747873;82;21969;-65
2022/08/23 07:37:15;;;;;;;47.88;6.75;;;;;;;27.75;35.67;100366.70;1736357;81;21550;-66
2022/08/23 07:39:47;;;;;;;48.42;7.80;;;;;;;27.90;35.37;100367.78;1755821;81;21089;-63
2022/08/23 07:42:18;;;;;;;52.13;7.85;;;;;;;28.20;34.44;100369.13;1764350;81;21091;-64
2022/08/23 07:44:50;;;;;;;60.80;8.13;;;;;;;28.20;34.44;100369.13;1762363;81;21070;-63
2022/08/23 07:47:22;;;;;;;58.95;8.53;;;;;;;28.33;33.98;100371.69;1670322;85;21041;-64
2022/08/23 07:49:53;;;;;;;72.90;9.65;;;;;;;28.59;33.77;100375.58;1727902;82;21413;-65
2022/08/23 07:52:24;;;;;;;59.25;8.03;;;;;;;28.59;33.77;100375.58;1752198;81;21015;-65
2022/08/23 07:54:54;;;;;;;62.90;7.80;;;;;;;28.71;33.69;100373.05;1719029;81;21051;-65
2022/08/23 07:57:42;;;;;;;69.47;9.10;;;;;;;28.97;33.29;100372.45;1712546;84;21015;-65
2022/08/23 08:00:14;;;;;;;55.20;8.13;;;;;;;29.17;32.66;100374.73;1711579;84;21537;-64
2022/08/23 08:02:46;;;;;;;44.53;8.03;;;;;;;29.28;32.55;100366.86;1711843;82;21380;-63
2022/08/23 08:05:17;;;;;;;68.15;9.25;;;;;;;29.39;31.98;100358.95;1712544;84;21497;-62
2022/08/23 08:07:49;;;;;;;70.00;8.90;;;;;;;29.43;31.80;100371.26;1721100;83;21048;-64
2022/08/23 08:10:19;;;;;;;73.55;9.23;;;;;;;29.41;32.38;100369.34;1729792;81;21075;-65
2022/08/23 08:12:51;;;;;;;60.65;9.50;;;;;;;29.53;31.96;100368.18;1752681;81;20976;-64
2022/08/23 08:15:22;;;;;;;77.53;10.48;;;;;;;29.63;31.60;100371.55;1751878;81;21079;-66
2022/08/23 08:17:54;;;;;;;55.60;8.85;;;;;;;29.69;31.50;100369.99;1686990;84;21077;-63
2022/08/23 08:20:25;;;;;;;72.62;10.32;;;;;;;29.76;31.87;100371.18;1707573;84;21417;-64
2022/08/23 08:22:59;;;;;;;70.90;9.55;;;;;;;29.97;31.31;100366.63;1737419;81;21510;-64
2022/08/23 08:25:37;;;;;;;69.32;8.65;;;;;;;30.14;31.36;100373.52;1756332;81;21071;-64
2022/08/23 08:28:09;;;;;;;66.87;9.90;;;;;;;30.27;31.58;100381.02;1696171;84;21096;-64
2022/08/23 08:30:40;;;;;;;62.60;9.90;;;;;;;30.35;31.07;100375.95;1766065;81;20996;-65
2022/08/23 08:33:10;;;;;;;63.60;8.35;;;;;;;30.43;30.90;100379.37;1759367;81;20996;-64
2022/08/23 08:35:39;;;;;;;65.10;9.15;;;;;;;30.52;30.57;100369.48;1764033;81;21012;-66
2022/08/23 08:38:09;;;;;;;54.73;7.95;;;;;;;30.51;30.66;100374.30;1757396;81;21050;-65
2022/08/23 08:40:39;;;;;;;63.55;8.33;;;;;;;30.45;31.12;100394.02;1750446;82;21623;-66
2022/08/23 08:43:23;;;;;;;68.65;8.78;;;;;;;30.53;30.72;100384.70;1722983;82;21023;-66
2022/08/23 08:46:19;;;;;;;61.42;9.58;;;;;;;30.74;30.59;100386.35;1750561;82;21070;-66
2022/08/23 08:48:51;;;;;;;62.58;9.33;;;;;;;30.92;30.43;100391.42;1741863;81;21063;-65
2022/08/23 08:51:52;;;;;;;50.65;7.70;;;;;;;31.13;29.82;100381.64;1766382;81;21079;-64
2022/08/23 08:54:24;;;;;;;50.38;8.60;;;;;;;31.06;29.64;100388.41;1766325;81;21059;-64
2022/08/23 08:56:57;;;;;;;66.10;8.55;;;;;;;30.95;29.74;100390.75;1734755;82;21477;-65
2022/08/23 08:59:53;;;;;;;67.08;8.68;;;;;;;30.93;29.85;100390.83;1750871;81;21028;-65
2022/08/23 09:02:27;;;;;;;55.92;8.28;;;;;;;30.91;29.85;100394.00;1743625;81;21127;-66
2022/08/23 09:05:01;;;;;;;48.90;7.47;;;;;;;30.89;29.61;100380.19;1768678;81;21102;-66
2022/08/23 09:08:00;;;;;;;63.17;8.28;;;;;;;30.79;29.77;100389.59;1688218;85;21041;-65
2022/08/23 09:10:52;;;;;;;51.85;6.70;;;;;;;30.74;30.17;100391.18;1755355;82;21011;-66
2022/08/23 09:13:52;;;;;;;52.88;7.50;;;;;;;30.76;29.91;100398.17;1727152;82;21451;-65
2022/08/23 09:16:42;;;;;;;52.50;7.12;;;;;;;30.74;29.84;100393.42;1725697;83;21058;-66
2022/08/23 09:19:12;;;;;;;43.98;6.50;;;;;;;30.67;30.23;100393.67;1694657;83;21038;-66
2022/08/23 09:21:55;;;;;;;44.38;6.78;;;;;;;30.58;30.23;100388.81;1725546;83;21126;-66
2022/08/23 09:24:25;;;;;;;32.03;5.72;;;;;;;30.56;30.50;100395.94;1687814;84;21103;-65
2022/08/23 09:27:10;;;;;;;48.85;7.22;;;;;;;30.59;30.47;100397.58;1717395;83;21016;-65
2022/08/23 09:29:42;;;;;;;38.63;6.80;;;;;;;30.56;30.32;100395.39;1768702;81;21031;-66
2022/08/23 09:32:35;;;;;;;39.98;6.90;;;;;;;30.56;30.23;100399.63;1694782;84;21043;-65
2022/08/23 09:35:21;;;;;;;45.40;6.35;;;;;;;30.55;30.37;100403.59;1744929;81;21031;-65
2022/08/23 09:38:03;;;;;;;35.68;5.65;;;;;;;30.55;29.63;100406.41;1687935;84;21032;-64
2022/08/23 09:40:41;;;;;;;37.90;5.75;;;;;;;30.52;29.06;100397.19;1751440;81;21000;-64
2022/08/23 09:43:17;;;;;;;29.70;5.70;;;;;;;30.40;29.02;100392.77;1699829;82;21066;-65
2022/08/23 09:45:54;;;;;;;30.00;5.22;;;;;;;30.34;29.01;100389.84;1706878;84;21023;-64
2022/08/23 09:48:41;;;;;;;23.67;4.62;;;;;;;30.36;29.20;100397.99;1661529;85;21075;-65
2022/08/23 09:51:24;;;;;;;28.38;4.85;;;;;;;30.38;28.27;100404.98;1761043;81;21008;-65
2022/08/23 09:54:14;;;;;;;24.60;4.65;;;;;;;30.32;27.82;100392.75;1679478;85;21079;-65
2022/08/23 09:56:50;;;;;;;27.67;4.28;;;;;;;30.23;27.43;100395.56;1741940;81;21031;-64
2022/08/23 09:59:23;;;;;;;24.30;4.08;;;;;;;30.12;26.83;100398.45;1761108;81;21107;-62
2022/08/23 10:01:57;;;;;;;28.42;4.62;;;;;;;30.06;26.92;100395.52;1680788;84;21122;-64
2022/08/23 10:04:39;;;;;;;18.17;3.87;;;;;;;30.06;27.10;100394.11;1694345;84;21149;-67
2022/08/23 10:07:37;;;;;;;21.55;3.85;;;;;;;30.09;26.90;100398.52;1640384;87;21694;-65
2022/08/23 10:10:24;;;;;;;24.52;4.40;;;;;;;30.01;26.97;100395.06;1640449;87;21478;-66
2022/08/23 10:12:55;;;;;;;20.48;4.10;;;;;;;29.78;27.62;100398.52;1640833;87;21090;-66
2022/08/23 10:15:48;;;;;;;19.57;3.80;;;;;;;29.63;27.65;100393.31;1640554;87;21034;-66
2022/08/23 10:18:41;;;;;;;23.92;4.47;;;;;;;29.52;27.85;100401.81;1644153;84;22051;-67
2022/08/23 10:21:34;;;;;;;22.25;4.37;;;;;;;29.22;28.68;100395.77;1667529;86;21069;-67
2022/08/23 10:24:27;;;;;;;24.90;5.75;;;;;;;29.22;28.68;100395.77;1650521;87;21111;-66
2022/08/23 10:30:18;;;;;;;23.38;4.15;;;;;;;29.07;29.40;100391.94;1708713;83;21035;-67
2022/08/23 10:33:14;;;;;;;20.85;4.35;;;;;;;29.03;29.44;100400.20;1708811;83;21074;-66
2022/08/23 10:36:01;;;;;;;15.93;3.80;;;;;;;29.00;29.31;100399.44;1695138;84;21031;-64
2022/08/23 10:38:58;;;;;;;18.25;4.08;;;;;;;29.00;29.57;100398.03;1696760;84;21030;-67
2022/08/23 10:41:41;;;;;;;17.48;4.05;;;;;;;28.96;29.48;100397.00;1723560;83;21116;-66
2022/08/23 10:44:49;;;;;;;18.25;3.77;;;;;;;28.94;29.20;100407.77;1701445;84;21546;-66
2022/08/23 10:47:57;;;;;;;14.60;3.60;;;;;;;28.97;28.99;100400.66;1693141;85;21061;-66
2022/08/23 10:50:29;;;;;;;17.32;3.20;;;;;;;29.05;28.68;100411.17;1686654;83;21008;-65
2022/08/23 10:53:10;;;;;;;13.93;3.05;;;;;;;29.15;28.49;100392.56;1662649;86;21087;-68
2022/08/23 10:56:03;;;;;;;17.48;3.37;;;;;;;29.29;27.68;100393.35;1670390;86;21078;-66
2022/08/23 10:58:42;;;;;;;14.95;3.58;;;;;;;29.40;27.44;100392.50;1663245;86;21079;-67
2022/08/23 11:01:16;;;;;;;25.08;3.62;;;;;;;29.52;25.35;100400.39;1672717;86;21491;-65
2022/08/23 11:04:05;;;;;;;19.77;3.35;;;;;;;29.68;24.79;100392.33;1663360;86;21074;-64
2022/08/23 11:06:46;;;;;;;20.95;3.08;;;;;;;29.78;24.52;100379.33;1701715;83;21031;-65
2022/08/23 11:09:26;;;;;;;19.70;3.10;;;;;;;29.93;23.67;100378.91;1704683;84;21036;-67
2022/08/23 11:12:27;;;;;;;15.88;3.08;;;;;;;30.01;23.16;100380.93;1723517;83;21016;-67
2022/08/23 11:15:13;;;;;;;17.65;3.55;;;;;;;30.03;23.34;100384.88;1723486;83;21104;-67
2022/08/23 11:17:55;;;;;;;11.43;3.00;;;;;;;30.01;23.47;100387.16;1709219;83;21075;-66
2022/08/23 11:20:52;;;;;;;15.28;3.40;;;;;;;29.98;23.68;100394.30;1694603;85;21110;-67
2022/08/23 11:23:57;;;;;;;18.20;3.30;;;;;;;29.84;23.86;100391.56;1708432;83;21079;-67
2022/08/23 11:26:35;;;;;;;11.35;2.75;;;;;;;29.84;23.86;100391.56;1721555;83;21066;-67
2022/08/23 11:29:25;;;;;;;14.58;2.87;;;;;;;29.81;24.03;100389.98;1666947;86;21058;-69
2022/08/23 11:32:32;;;;;;;15.38;2.87;;;;;;;29.73;24.39;100387.95;1645552;86;21802;-67
2022/08/23 11:35:29;;;;;;;17.87;2.90;;;;;;;29.73;24.39;100387.95;1691263;84;21054;-66
2022/08/23 11:38:00;;;;;;;11.63;3.17;;;;;;;29.71;24.70;100387.45;1725794;83;21019;-67
2022/08/23 11:40:51;;;;;;;14.90;2.70;;;;;;;29.70;24.90;100388.02;1696697;84;21478;-67
2022/08/23 11:43:35;;;;;;;15.80;3.25;;;;;;;29.70;24.98;100383.78;1696695;84;21568;-64
2022/08/23 11:46:33;;;;;;;8.90;3.00;;;;;;;29.70;25.22;100388.02;1692624;84;21118;-65
2022/08/23 11:49:35;;;;;;;11.50;2.58;;;;;;;29.68;25.50;100382.45;1722409;83;21059;-66
2022/08/23 11:52:29;;;;;;;14.47;2.83;;;;;;;29.68;25.50;100382.45;1723256;83;21034;-66
2022/08/23 11:55:26;;;;;;;14.80;3.00;;;;;;;29.66;25.15;100375.71;1696555;84;21067;-64
2022/08/23 11:58:28;;;;;;;9.48;2.42;;;;;;;29.63;24.90;100367.89;1639097;87;21062;-66
2022/08/23 12:01:08;;;;;;;13.00;2.22;;;;;;;29.65;25.07;100371.22;1638778;87;21075;-69
2022/08/23 12:04:00;;;;;;;16.73;2.20;;;;;;;29.70;24.53;100370.24;1626380;87;21079;-66
2022/08/23 12:06:43;;;;;;;10.60;2.60;;;;;;;29.78;24.39;100367.45;1624065;88;21067;-67
2022/08/23 12:09:26;;;;;;;14.05;2.47;;;;;;;29.88;24.29;100355.84;1623543;88;21059;-66